Aviation Digital Data Service (ADDS)

Output produced by TAFs form (0113 UTC 30 August 2016)
found at http://aviationweather.gov/adds/tafs/
 
KTUS 292320Z 3000/3024 13007KT P6SM FEW100 
     FM301100 12014G22KT P6SM FEW110 
     FM302100 09008KT P6SM SCT100